createdAt,value
2022-08-27T00:01:53.235Z,3.15
2022-08-27T00:04:26.414Z,2.35
2022-08-27T00:07:00.329Z,4.28
2022-08-27T00:09:27.416Z,4.85
2022-08-27T00:12:02.315Z,2.25
2022-08-27T00:14:29.239Z,3.03
2022-08-27T00:17:03.451Z,3.92
2022-08-27T00:19:30.395Z,2.28
2022-08-27T00:22:03.349Z,2.38
2022-08-27T00:24:30.222Z,2.63
2022-08-27T00:27:03.315Z,5.63
2022-08-27T00:29:30.259Z,2.67
2022-08-27T00:32:03.385Z,2.20
2022-08-27T00:34:30.382Z,3.17
2022-08-27T00:37:04.343Z,3.13
2022-08-27T00:39:31.210Z,3.15
2022-08-27T00:42:04.412Z,3.83
2022-08-27T00:44:31.327Z,2.55
2022-08-27T00:47:12.365Z,3.05
2022-08-27T00:49:49.451Z,2.83
2022-08-27T00:52:31.310Z,3.13
2022-08-27T00:55:09.956Z,2.92
2022-08-27T00:57:44.314Z,4.68
2022-08-27T01:00:15.037Z,2.78
2022-08-27T01:02:48.345Z,4.15
2022-08-27T01:05:23.886Z,3.65
2022-08-27T01:07:59.387Z,2.28
2022-08-27T01:10:26.889Z,2.00
2022-08-27T01:12:53.932Z,2.60
2022-08-27T01:15:29.414Z,2.17
2022-08-27T01:18:03.387Z,1.95
2022-08-27T01:20:45.609Z,2.35
2022-08-27T01:23:31.334Z,1.92
2022-08-27T01:26:00.614Z,2.00
2022-08-27T01:28:37.578Z,2.58
2022-08-27T01:31:06.252Z,2.30
2022-08-27T01:33:39.360Z,1.80
2022-08-27T01:36:13.379Z,5.70
2022-08-27T01:38:40.295Z,2.55
2022-08-27T01:41:16.429Z,2.65
2022-08-27T01:43:44.059Z,2.28
2022-08-27T01:46:17.420Z,5.07
2022-08-27T01:48:44.347Z,4.68
2022-08-27T01:51:17.355Z,7.93
2022-08-27T01:53:50.381Z,2.53
2022-08-27T01:56:17.242Z,3.70
2022-08-27T01:58:50.364Z,3.85
2022-08-27T02:01:17.274Z,2.35
2022-08-27T02:03:51.355Z,2.42
2022-08-27T02:06:18.242Z,2.80
2022-08-27T02:08:51.371Z,3.08
2022-08-27T02:11:18.229Z,5.38
2022-08-27T02:13:45.124Z,2.58
2022-08-27T02:16:19.546Z,4.45
2022-08-27T02:18:46.434Z,2.95
2022-08-27T02:21:20.379Z,3.60
2022-08-27T02:23:47.246Z,5.25
2022-08-27T02:26:20.407Z,4.82
2022-08-27T02:28:47.361Z,3.50
2022-08-27T02:31:14.362Z,5.20
2022-08-27T02:33:47.387Z,2.95
2022-08-27T02:36:14.332Z,4.18
2022-08-27T02:38:48.440Z,2.53
2022-08-27T02:41:15.317Z,3.15
2022-08-27T02:43:49.403Z,3.72
2022-08-27T02:46:17.094Z,2.67
2022-08-27T02:48:44.025Z,2.60
2022-08-27T02:51:17.406Z,5.78
2022-08-27T02:53:46.525Z,4.25
2022-08-27T02:56:21.768Z,3.33
2022-08-27T02:58:49.086Z,3.55
2022-08-27T03:01:22.512Z,7.40
2022-08-27T03:03:49.488Z,4.70
2022-08-27T03:06:23.449Z,6.25
2022-08-27T03:08:53.353Z,2.17
2022-08-27T03:11:28.611Z,2.47
2022-08-27T03:13:55.518Z,5.47
2022-08-27T03:16:28.474Z,3.72
2022-08-27T03:18:55.389Z,6.25
2022-08-27T03:21:31.414Z,5.50
2022-08-27T03:23:58.289Z,2.50
2022-08-27T03:26:53.820Z,3.45
2022-08-27T03:29:21.032Z,3.03
2022-08-27T03:31:54.462Z,2.95
2022-08-27T03:34:21.332Z,5.93
2022-08-27T03:36:48.206Z,2.88
2022-08-27T03:39:21.439Z,5.25
2022-08-27T03:41:55.774Z,3.40
2022-08-27T03:44:30.449Z,3.10
2022-08-27T03:46:57.465Z,4.28
2022-08-27T03:49:30.487Z,3.80
2022-08-27T03:51:59.926Z,3.60
2022-08-27T03:54:33.443Z,5.97
2022-08-27T03:57:00.318Z,4.43
2022-08-27T03:59:33.439Z,2.92
2022-08-27T04:02:02.064Z,3.00
2022-08-27T04:04:35.450Z,4.07
2022-08-27T04:07:08.439Z,3.28
2022-08-27T04:09:35.309Z,3.63
2022-08-27T04:12:02.427Z,3.72
2022-08-27T04:14:35.454Z,5.45
2022-08-27T04:17:09.463Z,4.60
2022-08-27T04:19:36.366Z,4.88
2022-08-27T04:22:12.470Z,4.10
2022-08-27T04:24:39.444Z,3.33
2022-08-27T04:27:13.457Z,3.38
2022-08-27T04:29:40.365Z,2.25
2022-08-27T04:32:07.424Z,3.10
2022-08-27T04:34:40.495Z,2.60
2022-08-27T04:37:07.372Z,6.05
2022-08-27T04:39:40.462Z,3.67
2022-08-27T04:42:07.419Z,4.03
2022-08-27T04:44:40.480Z,3.63
2022-08-27T04:47:07.383Z,2.42
2022-08-27T04:49:40.482Z,5.63
2022-08-27T04:52:07.930Z,5.22
2022-08-27T04:54:41.501Z,2.85
2022-08-27T04:57:08.385Z,2.97
2022-08-27T04:59:41.499Z,4.05
2022-08-27T05:02:08.843Z,3.00
2022-08-27T05:04:43.564Z,2.60
2022-08-27T05:07:10.694Z,2.90
2022-08-27T05:09:44.501Z,3.53
2022-08-27T05:12:11.407Z,6.85
2022-08-27T05:14:44.512Z,5.47
2022-08-27T05:17:11.410Z,2.55
2022-08-27T05:19:44.507Z,2.65
2022-08-27T05:22:11.391Z,3.42
2022-08-27T05:24:50.270Z,2.90
2022-08-27T05:27:23.566Z,2.88
2022-08-27T05:29:50.465Z,4.00
2022-08-27T05:32:23.494Z,5.05
2022-08-27T05:34:56.632Z,4.50
2022-08-27T05:37:23.521Z,4.95
2022-08-27T05:39:56.586Z,3.40
2022-08-27T05:42:23.457Z,3.45
2022-08-27T05:44:50.447Z,3.20
2022-08-27T05:47:23.551Z,5.28
2022-08-27T05:50:00.524Z,3.13
2022-08-27T05:52:27.837Z,2.92
2022-08-27T05:55:01.553Z,2.75
2022-08-27T05:57:28.484Z,3.08
2022-08-27T06:00:01.540Z,3.85
2022-08-27T06:02:28.503Z,3.42
2022-08-27T06:05:02.631Z,3.85
2022-08-27T06:07:29.516Z,3.08
2022-08-27T06:09:56.407Z,3.05
2022-08-27T06:12:29.544Z,2.60
2022-08-27T06:15:03.564Z,2.85
2022-08-27T06:17:30.535Z,2.72
2022-08-27T06:20:04.597Z,3.65
2022-08-27T06:22:31.603Z,2.90
2022-08-27T06:25:04.557Z,2.55
2022-08-27T06:27:38.583Z,2.50
2022-08-27T06:30:06.187Z,4.93
2022-08-27T06:32:39.655Z,4.20
2022-08-27T06:35:07.042Z,2.33
2022-08-27T06:37:34.118Z,2.72
2022-08-27T06:40:07.639Z,2.55
2022-08-27T06:42:41.586Z,3.97
2022-08-27T06:45:09.655Z,3.20
2022-08-27T06:47:43.598Z,3.30
2022-08-27T06:50:10.569Z,4.43
2022-08-27T06:52:43.607Z,2.90
2022-08-27T06:55:10.920Z,2.33
2022-08-27T06:57:44.631Z,2.60
2022-08-27T07:00:18.588Z,1.95
2022-08-27T07:02:45.678Z,2.95
2022-08-27T07:05:19.616Z,3.05
2022-08-27T07:07:48.799Z,3.08
2022-08-27T07:10:22.585Z,2.85
2022-08-27T07:12:49.477Z,4.97
2022-08-27T07:15:23.612Z,2.03
2022-08-27T07:17:54.110Z,2.03
2022-08-27T07:20:27.652Z,2.78
2022-08-27T07:23:00.599Z,2.55
2022-08-27T07:25:33.636Z,1.42
2022-08-27T07:28:00.573Z,1.65
2022-08-27T07:30:33.657Z,3.00
2022-08-27T07:33:00.795Z,3.60
2022-08-27T07:35:34.597Z,1.90
2022-08-27T07:38:01.532Z,1.48
2022-08-27T07:40:34.730Z,1.60
2022-08-27T07:43:01.975Z,3.20
2022-08-27T07:45:35.667Z,1.85
2022-08-27T07:48:09.759Z,2.92
2022-08-27T07:50:43.659Z,2.35
2022-08-27T07:53:10.791Z,1.83
2022-08-27T07:55:45.631Z,6.43
2022-08-27T07:58:19.716Z,1.55
2022-08-27T08:00:46.842Z,1.48
2022-08-27T08:03:20.647Z,2.08
2022-08-27T08:05:47.630Z,2.42
2022-08-27T08:08:21.667Z,2.15
2022-08-27T08:10:49.218Z,1.38
2022-08-27T08:13:23.647Z,1.20
2022-08-27T08:15:50.703Z,1.40
2022-08-27T08:18:17.715Z,1.52
2022-08-27T08:20:58.346Z,1.30
2022-08-27T08:23:26.055Z,1.20
2022-08-27T08:25:59.692Z,1.08
2022-08-27T08:28:27.009Z,1.25
2022-08-27T08:31:00.702Z,1.48
2022-08-27T08:33:28.748Z,1.40
2022-08-27T08:36:07.689Z,1.30
2022-08-27T08:38:34.733Z,1.75
2022-08-27T08:41:08.766Z,1.60
2022-08-27T08:43:42.684Z,1.63
2022-08-27T08:46:27.707Z,7.80
2022-08-27T08:48:59.067Z,1.88
2022-08-27T08:51:37.667Z,2.00
2022-08-27T08:54:19.457Z,1.83
2022-08-27T08:57:02.679Z,1.88
2022-08-27T08:59:42.087Z,1.70
2022-08-27T09:02:19.687Z,1.50
2022-08-27T09:04:46.565Z,1.58
2022-08-27T09:07:32.668Z,1.65
2022-08-27T09:10:10.992Z,1.70
2022-08-27T09:12:44.692Z,1.40
2022-08-27T09:15:23.705Z,1.90
2022-08-27T09:17:56.700Z,1.75
2022-08-27T09:20:29.673Z,1.88
2022-08-27T09:23:20.815Z,1.50
2022-08-27T09:25:54.677Z,1.90
2022-08-27T09:28:28.494Z,1.85
2022-08-27T09:31:05.766Z,1.63
2022-08-27T09:33:44.646Z,1.70
2022-08-27T09:36:25.722Z,2.22
2022-08-27T09:39:01.244Z,2.65
2022-08-27T09:41:37.724Z,1.90
2022-08-27T09:44:11.162Z,2.30
2022-08-27T09:46:44.698Z,2.42
2022-08-27T09:49:21.751Z,2.17
2022-08-27T09:51:48.655Z,2.53
2022-08-27T09:54:49.735Z,2.00
2022-08-27T09:57:34.306Z,2.30
2022-08-27T10:00:07.749Z,2.33
2022-08-27T10:02:34.662Z,2.25
2022-08-27T10:05:37.742Z,2.60
2022-08-27T10:08:22.775Z,2.42
2022-08-27T10:11:01.824Z,2.47
2022-08-27T10:13:59.801Z,2.47
2022-08-27T10:17:06.837Z,3.17
2022-08-27T10:19:55.452Z,2.60
2022-08-27T10:23:14.821Z,4.55
2022-08-27T10:26:18.782Z,3.25
2022-08-27T10:29:08.272Z,2.83
2022-08-27T10:32:12.783Z,2.03
2022-08-27T10:34:57.341Z,2.60
2022-08-27T10:38:07.775Z,2.40
2022-08-27T10:40:41.335Z,2.42
2022-08-27T10:43:52.831Z,3.60
2022-08-27T10:46:56.798Z,2.85
2022-08-27T10:50:12.434Z,3.17
2022-08-27T10:52:51.848Z,3.08
2022-08-27T10:55:34.329Z,3.35
2022-08-27T10:58:10.777Z,4.97
2022-08-27T11:00:50.982Z,3.00
2022-08-27T11:03:52.793Z,4.30
2022-08-27T11:06:41.827Z,4.28
2022-08-27T11:09:25.484Z,4.78
2022-08-27T11:12:14.627Z,4.57
2022-08-27T11:15:02.531Z,5.85
2022-08-27T11:17:58.814Z,3.72
2022-08-27T11:20:37.884Z,4.70
2022-08-27T11:23:23.775Z,4.95
2022-08-27T11:26:02.373Z,3.50
2022-08-27T11:28:49.820Z,6.55
2022-08-27T11:31:19.858Z,3.53
2022-08-27T11:34:29.849Z,3.55
2022-08-27T11:37:11.656Z,3.60
2022-08-27T11:40:22.931Z,5.32
2022-08-27T11:42:52.174Z,3.72
2022-08-27T11:45:34.890Z,3.75
2022-08-27T11:48:03.377Z,4.00
2022-08-27T11:50:30.621Z,3.50
2022-08-27T11:53:10.837Z,4.05
2022-08-27T11:55:45.857Z,3.88
2022-08-27T11:58:18.821Z,5.68
2022-08-27T12:00:52.855Z,4.53
2022-08-27T12:03:19.811Z,4.40
2022-08-27T12:05:49.395Z,3.55
2022-08-27T12:08:28.866Z,3.70
2022-08-27T12:11:25.888Z,3.90
2022-08-27T12:14:14.708Z,4.15
2022-08-27T12:17:08.966Z,4.10
2022-08-27T12:20:22.570Z,4.13
2022-08-27T12:23:24.902Z,4.15
2022-08-27T12:26:41.859Z,3.85
2022-08-27T12:29:28.831Z,3.58
2022-08-27T12:32:14.574Z,4.07
2022-08-27T12:34:57.783Z,5.82
2022-08-27T12:37:36.864Z,3.63
2022-08-27T12:40:19.779Z,3.60
2022-08-27T12:42:56.892Z,3.88
2022-08-27T12:45:25.338Z,4.32
2022-08-27T12:47:59.894Z,4.05
2022-08-27T12:50:29.192Z,3.75
2022-08-27T12:53:15.877Z,3.90
2022-08-27T12:56:27.120Z,3.10
2022-08-27T12:59:42.904Z,3.53
2022-08-27T13:02:27.859Z,3.72
2022-08-27T13:05:00.898Z,2.90
2022-08-27T13:07:34.923Z,3.15
2022-08-27T13:10:22.901Z,3.75
2022-08-27T13:13:15.468Z,3.00
2022-08-27T13:15:57.957Z,3.55
2022-08-27T13:18:29.568Z,3.00
2022-08-27T13:21:21.946Z,3.28
2022-08-27T13:23:56.894Z,3.35
2022-08-27T13:26:33.897Z,3.00
2022-08-27T13:29:07.911Z,2.75
2022-08-27T13:31:35.044Z,2.80
2022-08-27T13:34:03.736Z,2.97
2022-08-27T13:36:55.925Z,2.80
2022-08-27T13:39:22.865Z,2.95
2022-08-27T13:41:55.924Z,2.83
2022-08-27T13:44:31.701Z,2.58
2022-08-27T13:47:09.952Z,2.88
2022-08-27T13:49:39.863Z,3.20
2022-08-27T13:52:35.934Z,2.70
2022-08-27T13:55:21.934Z,2.40
2022-08-27T13:57:50.789Z,2.67
2022-08-27T14:00:35.935Z,4.30
2022-08-27T14:03:03.015Z,4.30
2022-08-27T14:05:38.936Z,2.97
2022-08-27T14:08:14.808Z,3.85
2022-08-27T14:11:08.946Z,3.10
2022-08-27T14:13:46.577Z,2.97
2022-08-27T14:16:36.975Z,3.05
2022-08-27T14:19:11.507Z,2.83
2022-08-27T14:21:47.999Z,3.28
2022-08-27T14:24:14.941Z,3.10
2022-08-27T14:26:48.961Z,4.38
2022-08-27T14:29:15.867Z,3.88
2022-08-27T14:31:49.035Z,3.60
2022-08-27T14:34:16.038Z,3.47
2022-08-27T14:36:54.596Z,3.17
2022-08-27T14:39:22.058Z,3.42
2022-08-27T14:42:00.005Z,3.50
2022-08-27T14:44:40.002Z,8.35
2022-08-27T14:47:09.611Z,6.10
2022-08-27T14:49:47.976Z,3.22
2022-08-27T14:52:15.186Z,4.55
2022-08-27T14:54:48.997Z,3.33
2022-08-27T14:57:15.929Z,4.03
2022-08-27T14:59:48.990Z,4.43
2022-08-27T15:02:15.943Z,6.70
2022-08-27T15:04:50.050Z,4.57
2022-08-27T15:07:17.122Z,3.90
2022-08-27T15:09:51.010Z,5.20
2022-08-27T15:12:25.834Z,4.05
2022-08-27T15:15:00.014Z,5.00
2022-08-27T15:17:34.994Z,4.25
2022-08-27T15:20:04.982Z,5.63
2022-08-27T15:22:40.190Z,4.63
2022-08-27T15:25:11.307Z,4.95
2022-08-27T15:27:45.002Z,4.95
2022-08-27T15:30:13.998Z,4.10
2022-08-27T15:32:50.049Z,5.35
2022-08-27T15:35:27.005Z,5.45
2022-08-27T15:38:01.997Z,4.53
2022-08-27T15:40:31.720Z,6.13
2022-08-27T15:43:08.034Z,4.95
2022-08-27T15:45:34.939Z,4.68
2022-08-27T15:48:02.009Z,5.47
2022-08-27T15:50:36.044Z,4.47
2022-08-27T15:53:06.062Z,4.20
2022-08-27T15:55:43.088Z,4.20
2022-08-27T15:58:17.028Z,4.50
2022-08-27T16:00:50.418Z,4.72
2022-08-27T16:03:35.738Z,3.80
2022-08-27T16:06:05.266Z,5.25
2022-08-27T16:08:42.011Z,4.35
2022-08-27T16:11:16.045Z,5.50
2022-08-27T16:13:43.626Z,9.35
2022-08-27T16:16:18.072Z,8.80
2022-08-27T16:18:45.015Z,16.15
2022-08-27T16:21:18.050Z,15.98
2022-08-27T16:23:45.170Z,12.55
2022-08-27T16:26:12.106Z,22.88
2022-08-27T16:28:45.048Z,14.68
2022-08-27T16:31:12.308Z,8.82
2022-08-27T16:33:43.010Z,6.57
2022-08-27T16:36:17.054Z,9.18
2022-08-27T16:38:50.085Z,10.52
2022-08-27T16:41:16.970Z,9.13
2022-08-27T16:43:50.077Z,10.52
2022-08-27T16:46:17.318Z,11.57
2022-08-27T16:48:58.188Z,8.13
2022-08-27T16:51:34.700Z,7.82
2022-08-27T16:54:12.045Z,5.57
2022-08-27T16:56:39.092Z,5.25
2022-08-27T16:59:13.099Z,4.15
2022-08-27T17:01:43.239Z,4.72
2022-08-27T17:04:16.358Z,3.50
2022-08-27T17:06:56.149Z,3.35
2022-08-27T17:09:30.117Z,3.30
2022-08-27T17:11:57.597Z,4.78
2022-08-27T17:14:31.146Z,3.45
2022-08-27T17:16:58.097Z,3.70
2022-08-27T17:19:32.091Z,3.47
2022-08-27T17:22:00.326Z,4.05
2022-08-27T17:24:27.872Z,3.40
2022-08-27T17:27:01.123Z,3.65
2022-08-27T17:29:28.042Z,4.32
2022-08-27T17:32:01.088Z,3.90
2022-08-27T17:34:27.935Z,4.15
2022-08-27T17:37:01.123Z,5.85
2022-08-27T17:39:28.036Z,7.55
2022-08-27T17:42:01.114Z,6.20
2022-08-27T17:44:34.972Z,11.80
2022-08-27T17:47:11.116Z,10.23
2022-08-27T17:49:38.081Z,11.82
2022-08-27T17:52:19.106Z,7.28
2022-08-27T17:54:53.881Z,7.50
2022-08-27T17:57:40.995Z,7.82
2022-08-27T18:00:10.383Z,7.82
2022-08-27T18:02:55.135Z,8.25
2022-08-27T18:05:23.389Z,9.75
2022-08-27T18:07:57.132Z,9.50
2022-08-27T18:10:25.167Z,8.07
2022-08-27T18:12:59.125Z,9.05
2022-08-27T18:15:28.792Z,7.43
2022-08-27T18:18:03.124Z,16.80
2022-08-27T18:20:31.642Z,10.95
2022-08-27T18:23:05.122Z,5.60
2022-08-27T18:25:39.143Z,4.40
2022-08-27T18:28:15.150Z,4.95
2022-08-27T18:30:42.990Z,7.43
2022-08-27T18:33:16.182Z,4.35
2022-08-27T18:35:43.269Z,7.13
2022-08-27T18:38:17.187Z,4.32
2022-08-27T18:40:46.530Z,8.02
2022-08-27T18:43:21.177Z,6.35
2022-08-27T18:45:48.287Z,4.32
2022-08-27T18:48:26.193Z,5.40
2022-08-27T18:50:55.451Z,4.68
2022-08-27T18:53:29.154Z,3.97
2022-08-27T18:55:56.030Z,4.10
2022-08-27T18:58:29.156Z,4.82
2022-08-27T19:00:59.096Z,5.35
2022-08-27T19:03:45.148Z,5.00
2022-08-27T19:06:12.120Z,4.47
2022-08-27T19:08:39.310Z,4.28
2022-08-27T19:11:13.158Z,4.60
2022-08-27T19:13:41.213Z,4.90
2022-08-27T19:16:39.285Z,5.07
2022-08-27T19:19:06.185Z,5.07
2022-08-27T19:21:39.176Z,4.32
2022-08-27T19:24:06.671Z,6.80
2022-08-27T19:26:33.577Z,4.32
2022-08-27T19:29:07.177Z,4.78
2022-08-27T19:31:35.776Z,4.20
2022-08-27T19:34:13.174Z,4.50
2022-08-27T19:36:42.001Z,4.88
2022-08-27T19:39:17.180Z,4.47
2022-08-27T19:41:44.144Z,4.53
2022-08-27T19:44:11.095Z,4.18
2022-08-27T19:46:44.202Z,5.57
2022-08-27T19:49:11.519Z,4.10
2022-08-27T19:51:45.189Z,4.45
2022-08-27T19:54:12.076Z,4.68
2022-08-27T19:56:45.196Z,4.55
2022-08-27T19:59:20.660Z,4.18
2022-08-27T20:01:56.232Z,4.70
2022-08-27T20:04:23.159Z,4.05
2022-08-27T20:06:56.215Z,4.25
2022-08-27T20:09:23.125Z,3.75
2022-08-27T20:11:56.219Z,4.03
2022-08-27T20:14:23.153Z,4.30
2022-08-27T20:16:56.214Z,4.10
2022-08-27T20:19:23.109Z,4.28
2022-08-27T20:21:57.227Z,6.50
2022-08-27T20:24:24.114Z,4.50
2022-08-27T20:26:57.232Z,4.82
2022-08-27T20:29:32.564Z,5.05
2022-08-27T20:32:07.259Z,8.48
2022-08-27T20:34:34.150Z,4.53
2022-08-27T20:37:14.199Z,8.57
2022-08-27T20:39:47.232Z,6.57
2022-08-27T20:42:14.378Z,6.07
2022-08-27T20:44:41.279Z,4.70
2022-08-27T20:47:15.231Z,6.43
2022-08-27T20:49:42.144Z,4.05
2022-08-27T20:52:11.786Z,5.28
2022-08-27T20:54:45.259Z,4.55
2022-08-27T20:57:12.309Z,6.20
2022-08-27T20:59:46.241Z,5.35
2022-08-27T21:02:14.116Z,7.05
2022-08-27T21:04:50.274Z,6.50
2022-08-27T21:07:17.896Z,6.47
2022-08-27T21:09:56.077Z,7.43
2022-08-27T21:12:28.374Z,8.38
2022-08-27T21:15:02.261Z,6.32
2022-08-27T21:17:35.266Z,5.75
2022-08-27T21:20:03.266Z,6.22
2022-08-27T21:22:36.247Z,9.70
2022-08-27T21:25:03.519Z,6.82
2022-08-27T21:27:30.458Z,9.23
2022-08-27T21:30:05.249Z,7.97
2022-08-27T21:32:32.168Z,7.90
2022-08-27T21:35:05.271Z,8.55
2022-08-27T21:37:32.173Z,9.10
2022-08-27T21:40:05.349Z,6.65
2022-08-27T21:42:32.358Z,5.55
2022-08-27T21:45:05.278Z,6.32
2022-08-27T21:47:32.155Z,6.78
2022-08-27T21:50:05.320Z,7.75
2022-08-27T21:52:32.317Z,5.68
2022-08-27T21:55:05.291Z,4.75
2022-08-27T21:57:39.324Z,5.43
2022-08-27T22:00:40.322Z,4.97
2022-08-27T22:03:10.469Z,5.75
2022-08-27T22:05:45.270Z,6.28
2022-08-27T22:08:19.434Z,4.57
2022-08-27T22:10:47.859Z,5.43
2022-08-27T22:13:21.329Z,5.53
2022-08-27T22:15:55.384Z,6.68
2022-08-27T22:18:23.864Z,5.32
2022-08-27T22:20:51.569Z,5.28
2022-08-27T22:23:25.329Z,6.43
2022-08-27T22:25:59.335Z,6.28
2022-08-27T22:28:26.345Z,7.20
2022-08-27T22:30:59.404Z,5.85
2022-08-27T22:33:26.404Z,4.80
2022-08-27T22:35:53.495Z,4.70
2022-08-27T22:38:27.357Z,5.28
2022-08-27T22:40:54.364Z,4.57
2022-08-27T22:43:27.319Z,4.63
2022-08-27T22:46:01.017Z,4.40
2022-08-27T22:48:34.362Z,8.20
2022-08-27T22:51:01.313Z,7.45
2022-08-27T22:53:35.405Z,5.70
2022-08-27T22:56:06.255Z,5.30
2022-08-27T22:58:33.264Z,6.97
2022-08-27T23:01:06.331Z,6.30
2022-08-27T23:03:40.377Z,7.85
2022-08-27T23:06:13.813Z,6.22
2022-08-27T23:08:50.515Z,5.38
2022-08-27T23:11:24.339Z,6.22
2022-08-27T23:13:51.226Z,5.88
2022-08-27T23:16:24.402Z,6.25
2022-08-27T23:18:51.391Z,5.65
2022-08-27T23:21:24.358Z,5.53
2022-08-27T23:23:51.253Z,5.30
2022-08-27T23:26:24.334Z,7.95
2022-08-27T23:28:51.231Z,6.15
2022-08-27T23:31:24.413Z,5.30
2022-08-27T23:33:59.382Z,6.20
2022-08-27T23:36:26.303Z,6.22
2022-08-27T23:38:59.362Z,6.70
2022-08-27T23:41:33.358Z,6.10
2022-08-27T23:44:00.213Z,6.75
2022-08-27T23:46:33.394Z,7.30
2022-08-27T23:49:06.391Z,7.45
2022-08-27T23:51:33.338Z,6.18
2022-08-27T23:54:06.371Z,6.63
2022-08-27T23:56:33.276Z,5.35
2022-08-27T23:59:06.362Z,5.10
